Observation data for Spur on 05/25/2019      Previous  Date  Next       Current Mesonet Observations  Soil Data  Daily Summary Page  Observations in Plain Language
KSP1 250500Z 10003KT 18/16 A2997 RMK A01 T01760155  RH  092%=      5-min Rain = 0
KSP1 250505Z 08004KT 18/16 A2997 RMK A01 T01770156  RH  091%=      5-min Rain = 0
KSP1 250510Z 09004KT 18/16 A2997 RMK A01 T01780156  RH  091%=      5-min Rain = 0
KSP1 250515Z 08005KT 18/16 A2997 RMK A01 T01790156  RH  091%=      5-min Rain = 0
KSP1 250520Z 08005G10KT 18/16 A2997 RMK A01 T01790156  RH  090%=      5-min Rain = 0
KSP1 250525Z 08005KT 18/16 A2997 RMK A01 T01790156  RH  090%=      5-min Rain = 0
KSP1 250530Z 09005KT 18/16 A2996 RMK A01 T01790156  RH  090%=      5-min Rain = 0
KSP1 250535Z 09005KT 18/16 A2996 RMK A01 T01790156  RH  090%=      5-min Rain = 0
KSP1 250540Z 09005KT 18/16 A2996 RMK A01 T01790156  RH  090%=      5-min Rain = 0
KSP1 250545Z 09006KT 18/16 A2996 RMK A01 T01790157  RH  091%=      5-min Rain = 0
KSP1 250550Z 09006KT 18/16 A2996 RMK A01 T01800157  RH  091%=      5-min Rain = 0
KSP1 250555Z 09006KT 18/16 A2996 RMK A01 T01800157  RH  091%=      5-min Rain = 0
KSP1 250600Z 09005KT 18/16 A2996 RMK A01 T01800157  RH  091%=      5-min Rain = 0
KSP1 250605Z 09005KT 18/16 A2996 RMK A01 T01800158  RH  091%=      5-min Rain = 0
KSP1 250610Z 09006KT 18/16 A2996 RMK A01 T01800159  RH  091%=      5-min Rain = 0
KSP1 250615Z 09004KT 18/16 A2996 RMK A01 T01800159  RH  092%=      5-min Rain = 0
KSP1 250620Z 10005KT 18/16 A2996 RMK A01 T01810160  RH  092%=      5-min Rain = 0
KSP1 250625Z 09005KT 18/16 A2996 RMK A01 T01820161  RH  092%=      5-min Rain = 0
KSP1 250630Z 09005KT 18/16 A2996 RMK A01 T01820161  RH  092%=      5-min Rain = 0
KSP1 250635Z 07005KT 18/16 A2996 RMK A01 T01820161  RH  091%=      5-min Rain = 0
KSP1 250640Z 07005KT 18/16 A2996 RMK A01 T01810160  RH  092%=      5-min Rain = 0
KSP1 250645Z 09005KT 18/16 A2995 RMK A01 T01820161  RH  092%=      5-min Rain = 0
KSP1 250650Z 09007KT 18/16 A2995 RMK A01 T01830162  RH  092%=      5-min Rain = 0
KSP1 250655Z 10007KT 18/16 A2995 RMK A01 T01840164  RH  093%=      5-min Rain = 0
KSP1 250700Z 10007KT 19/17 A2995 RMK A01 T01860165  RH  092%=      5-min Rain = 0
KSP1 250705Z 11007G12KT 19/17 A2994 RMK A01 T01860165  RH  092%=      5-min Rain = 0
KSP1 250710Z 10007G12KT 19/17 A2994 RMK A01 T01870165  RH  092%=      5-min Rain = 0
KSP1 250715Z 10007KT 19/17 A2994 RMK A01 T01870165  RH  092%=      5-min Rain = 0
KSP1 250720Z 10007KT 19/17 A2994 RMK A01 T01870166  RH  092%=      5-min Rain = 0
KSP1 250725Z 11007KT 19/17 A2994 RMK A01 T01880167  RH  092%=      5-min Rain = 0
KSP1 250730Z 11006KT 19/17 A2994 RMK A01 T01880167  RH  092%=      5-min Rain = 0
KSP1 250735Z 11006KT 19/17 A2994 RMK A01 T01880167  RH  092%=      5-min Rain = 0
KSP1 250740Z 11006KT 19/17 A2994 RMK A01 T01880168  RH  092%=      5-min Rain = 0
KSP1 250745Z 11006KT 19/17 A2994 RMK A01 T01880168  RH  092%=      5-min Rain = 0
KSP1 250750Z 11006KT 19/17 A2994 RMK A01 T01890169  RH  093%=      5-min Rain = 0
KSP1 250755Z 11006KT 19/17 A2994 RMK A01 T01900170  RH  093%=      5-min Rain = 0
KSP1 250800Z 11006KT 19/17 A2994 RMK A01 T01910171  RH  092%=      5-min Rain = 0
KSP1 250805Z 11005KT 19/17 A2993 RMK A01 T01920171  RH  092%=      5-min Rain = 0
KSP1 250810Z 11006KT 19/17 A2993 RMK A01 T01920172  RH  092%=      5-min Rain = 0
KSP1 250815Z 12005KT 19/17 A2993 RMK A01 T01930172  RH  092%=      5-min Rain = 0
KSP1 250820Z 12005KT 19/17 A2993 RMK A01 T01940173  RH  092%=      5-min Rain = 0
KSP1 250825Z 12005KT 19/17 A2993 RMK A01 T01940173  RH  092%=      5-min Rain = 0
KSP1 250830Z 13005KT 20/17 A2993 RMK A01 T01950174  RH  092%=      5-min Rain = 0
KSP1 250835Z 13006KT 20/17 A2993 RMK A01 T01960174  RH  092%=      5-min Rain = 0
KSP1 250840Z 14006KT 20/18 A2993 RMK A01 T01960175  RH  092%=      5-min Rain = 0
KSP1 250845Z 14006KT 20/18 A2993 RMK A01 T01960175  RH  092%=      5-min Rain = 0
KSP1 250850Z 14007KT 20/18 A2993 RMK A01 T01960175  RH  092%=      5-min Rain = 0
KSP1 250855Z 14008KT 20/18 A2992 RMK A01 T01960176  RH  093%=      5-min Rain = 0
KSP1 250900Z 14007KT 20/18 A2992 RMK A01 T01970176  RH  093%=      5-min Rain = 0
KSP1 250905Z 14007KT 20/18 A2993 RMK A01 T01980177  RH  092%=      5-min Rain = 0
KSP1 250910Z 14007KT 20/18 A2992 RMK A01 T01990177  RH  092%=      5-min Rain = 0
KSP1 250915Z 14007G12KT 20/18 A2992 RMK A01 T01990177  RH  092%=      5-min Rain = 0
KSP1 250920Z 14007KT 20/18 A2992 RMK A01 T02000178  RH  092%=      5-min Rain = 0
KSP1 250925Z 14007KT 20/18 A2992 RMK A01 T02000178  RH  091%=      5-min Rain = 0
KSP1 250930Z 14007KT 20/18 A2992 RMK A01 T02010177  RH  091%=      5-min Rain = 0
KSP1 250935Z 14007KT 20/18 A2992 RMK A01 T02010177  RH  091%=      5-min Rain = 0
KSP1 250940Z 14008KT 20/18 A2992 RMK A01 T02010177  RH  091%=      5-min Rain = 0
KSP1 250945Z 15007KT 20/18 A2992 RMK A01 T02010177  RH  090%=      5-min Rain = 0
KSP1 250950Z 15007KT 20/18 A2992 RMK A01 T02010176  RH  090%=      5-min Rain = 0
KSP1 250955Z 15006KT 20/18 A2992 RMK A01 T02010176  RH  090%=      5-min Rain = 0
KSP1 251000Z 15007KT 20/18 A2993 RMK A01 T02010176  RH  090%=      5-min Rain = 0
KSP1 251005Z 15007KT 20/18 A2993 RMK A01 T02020176  RH  089%=      5-min Rain = 0
KSP1 251010Z 15006KT 20/18 A2993 RMK A01 T02030175  RH  089%=      5-min Rain = 0
KSP1 251015Z 16005KT 20/18 A2993 RMK A01 T02020175  RH  089%=      5-min Rain = 0
KSP1 251020Z 16005KT 20/18 A2993 RMK A01 T02020175  RH  089%=      5-min Rain = 0
KSP1 251025Z 15005KT 20/17 A2993 RMK A01 T02020174  RH  088%=      5-min Rain = 0
KSP1 251030Z 15005KT 20/17 A2993 RMK A01 T02010174  RH  089%=      5-min Rain = 0
KSP1 251035Z 16004KT 20/17 A2994 RMK A01 T02000174  RH  089%=      5-min Rain = 0
KSP1 251040Z 16005KT 20/17 A2994 RMK A01 T02000173  RH  089%=      5-min Rain = 0
KSP1 251045Z 15005KT 20/17 A2994 RMK A01 T01990173  RH  089%=      5-min Rain = 0
KSP1 251050Z 15004KT 20/17 A2994 RMK A01 T01980173  RH  089%=      5-min Rain = 0
KSP1 251055Z 15004KT 20/17 A2994 RMK A01 T01980172  RH  090%=      5-min Rain = 0
KSP1 251100Z 16004KT 20/17 A2995 RMK A01 T01980172  RH  090%=      5-min Rain = 0
KSP1 251105Z 16004KT 20/17 A2995 RMK A01 T01970172  RH  090%=      5-min Rain = 0
KSP1 251110Z 16004KT 20/17 A2995 RMK A01 T01960172  RH  090%=      5-min Rain = 0
KSP1 251115Z 15004KT 20/17 A2995 RMK A01 T01960172  RH  090%=      5-min Rain = 0
KSP1 251120Z 15004KT 20/17 A2995 RMK A01 T01960172  RH  091%=      5-min Rain = 0
KSP1 251125Z 15003KT 20/17 A2995 RMK A01 T01950171  RH  091%=      5-min Rain = 0
KSP1 251130Z 16003KT 20/17 A2995 RMK A01 T01950171  RH  091%=      5-min Rain = 0
KSP1 251135Z 17003KT 20/17 A2995 RMK A01 T01950171  RH  091%=      5-min Rain = 0
KSP1 251140Z 16003KT 19/17 A2996 RMK A01 T01940171  RH  091%=      5-min Rain = 0
KSP1 251145Z 16003KT 19/17 A2996 RMK A01 T01940172  RH  091%=      5-min Rain = 0
KSP1 251150Z 16003KT 19/17 A2996 RMK A01 T01940172  RH  091%=      5-min Rain = 0
KSP1 251155Z 15003KT 20/17 A2996 RMK A01 T01950172  RH  091%=      5-min Rain = 0
KSP1 251200Z 16003KT 20/17 A2996 RMK A01 T01950172  RH  091%=      5-min Rain = 0
KSP1 251205Z 17003KT 20/17 A2996 RMK A01 T01950173  RH  092%=      5-min Rain = 0
KSP1 251210Z 17004KT 20/17 A2997 RMK A01 T01950174  RH  092%=      5-min Rain = 0
KSP1 251215Z 16005KT 20/18 A2997 RMK A01 T01970175  RH  092%=      5-min Rain = 0
KSP1 251220Z 16003KT 20/18 A2997 RMK A01 T01980176  RH  092%=      5-min Rain = 0
KSP1 251225Z 16003KT 20/18 A2997 RMK A01 T01990176  RH  091%=      5-min Rain = 0
KSP1 251230Z 16003KT 20/18 A2997 RMK A01 T02000177  RH  091%=      5-min Rain = 0
KSP1 251235Z 16003KT 20/18 A2997 RMK A01 T02000178  RH  091%=      5-min Rain = 0
KSP1 251240Z 16003KT 20/18 A2997 RMK A01 T02010179  RH  091%=      5-min Rain = 0
KSP1 251245Z 17004KT 20/18 A2997 RMK A01 T02030179  RH  091%=      5-min Rain = 0
KSP1 251250Z 17003KT 20/18 A2998 RMK A01 T02040180  RH  091%=      5-min Rain = 0
KSP1 251255Z 16004KT 21/18 A2998 RMK A01 T02050181  RH  091%=      5-min Rain = 0
KSP1 251300Z 17005KT 21/18 A2998 RMK A01 T02050181  RH  090%=      5-min Rain = 0
KSP1 251305Z 17004KT 21/18 A2998 RMK A01 T02070182  RH  090%=      5-min Rain = 0
KSP1 251310Z 17006KT 21/18 A2998 RMK A01 T02080182  RH  090%=      5-min Rain = 0
KSP1 251315Z 17006KT 21/18 A2998 RMK A01 T02090182  RH  089%=      5-min Rain = 0
KSP1 251320Z 17007KT 21/18 A2998 RMK A01 T02110183  RH  089%=      5-min Rain = 0
KSP1 251325Z 17008KT 21/18 A2999 RMK A01 T02110182  RH  088%=      5-min Rain = 0
KSP1 251330Z 17006KT 21/18 A2999 RMK A01 T02120183  RH  088%=      5-min Rain = 0
KSP1 251335Z 16007KT 21/18 A2999 RMK A01 T02120183  RH  088%=      5-min Rain = 0
KSP1 251340Z 17008KT 21/18 A2999 RMK A01 T02130183  RH  088%=      5-min Rain = 0
KSP1 251345Z 17008KT 21/18 A2999 RMK A01 T02140183  RH  087%=      5-min Rain = 0
KSP1 251350Z 17010KT 22/18 A2999 RMK A01 T02150183  RH  087%=      5-min Rain = 0
KSP1 251355Z 17009G14KT 22/18 A2999 RMK A01 T02160184  RH  086%=      5-min Rain = 0
KSP1 251400Z 17009KT 22/18 A2999 RMK A01 T02170184  RH  086%=      5-min Rain = 0
KSP1 251405Z 17010KT 22/18 A2999 RMK A01 T02180184  RH  086%=      5-min Rain = 0
KSP1 251410Z 17009G14KT 22/19 A2999 RMK A01 T02190185  RH  085%=      5-min Rain = 0
KSP1 251415Z 18009KT 22/19 A2999 RMK A01 T02200185  RH  085%=      5-min Rain = 0
KSP1 251420Z 17010KT 22/19 A2999 RMK A01 T02220185  RH  084%=      5-min Rain = 0
KSP1 251425Z 18010G17KT 22/18 A2999 RMK A01 T02220184  RH  084%=      5-min Rain = 0
KSP1 251430Z 18011G16KT 22/19 A2999 RMK A01 T02240185  RH  083%=      5-min Rain = 0
KSP1 251435Z 18011KT 23/19 A2999 RMK A01 T02260185  RH  082%=      5-min Rain = 0
KSP1 251440Z 17012KT 23/19 A30 RMK A01 T02270185  RH  081%=      5-min Rain = 0
KSP1 251445Z 18011KT 23/19 A2999 RMK A01 T02290185  RH  081%=      5-min Rain = 0
KSP1 251450Z 18011G17KT 23/19 A2999 RMK A01 T02300186  RH  080%=      5-min Rain = 0
KSP1 251455Z 17012KT 23/19 A2999 RMK A01 T02300185  RH  080%=      5-min Rain = 0
KSP1 251500Z 18009G15KT 23/19 A2999 RMK A01 T02310186  RH  080%=      5-min Rain = 0
KSP1 251505Z 18011G18KT 23/19 A2999 RMK A01 T02330187  RH  080%=      5-min Rain = 0
KSP1 251510Z 18009G14KT 24/19 A2999 RMK A01 T02350188  RH  079%=      5-min Rain = 0
KSP1 251515Z 18011G16KT 24/19 A30 RMK A01 T02380188  RH  078%=      5-min Rain = 0
KSP1 251520Z 18012G17KT 24/19 A30 RMK A01 T02390189  RH  078%=      5-min Rain = 0
KSP1 251525Z 19014G19KT 24/19 A30 RMK A01 T02410187  RH  076%=      5-min Rain = 0
KSP1 251530Z 18013KT 24/19 A30 RMK A01 T02400187  RH  076%=      5-min Rain = 0
KSP1 251535Z 19012G19KT 24/19 A2999 RMK A01 T02400187  RH  076%=      5-min Rain = 0
KSP1 251540Z 18014G19KT 24/19 A30 RMK A01 T02410186  RH  075%=      5-min Rain = 0
KSP1 251545Z 18013G19KT 24/19 A30 RMK A01 T02410187  RH  076%=      5-min Rain = 0
KSP1 251550Z 19013G19KT 24/19 A30 RMK A01 T02410187  RH  076%=      5-min Rain = 0
KSP1 251555Z 18013G18KT 24/19 A30 RMK A01 T02430188  RH  076%=      5-min Rain = 0
KSP1 251600Z 19012G18KT 25/19 A30 RMK A01 T02460189  RH  074%=      5-min Rain = 0
KSP1 251605Z 19013G19KT 24/19 A30 RMK A01 T02440187  RH  075%=      5-min Rain = 0
KSP1 251610Z 18012G18KT 24/19 A30 RMK A01 T02440188  RH  075%=      5-min Rain = 0
KSP1 251615Z 19012G17KT 24/19 A30 RMK A01 T02410187  RH  076%=      5-min Rain = 0
KSP1 251620Z 18010G15KT 24/19 A30 RMK A01 T02400188  RH  077%=      5-min Rain = 0
KSP1 251625Z 18010G15KT 24/19 A30 RMK A01 T02410188  RH  076%=      5-min Rain = 0
KSP1 251630Z 18012G18KT 24/19 A30 RMK A01 T02430188  RH  075%=      5-min Rain = 0
KSP1 251635Z 18012G18KT 24/19 A30 RMK A01 T02430187  RH  075%=      5-min Rain = 0
KSP1 251640Z 18012G18KT 24/19 A30 RMK A01 T02430186  RH  075%=      5-min Rain = 0
KSP1 251645Z 18013KT 24/19 A30 RMK A01 T02420186  RH  075%=      5-min Rain = 0
KSP1 251650Z 18011G16KT 24/19 A30 RMK A01 T02410187  RH  076%=      5-min Rain = 0
KSP1 251655Z 18014G19KT 24/19 A30 RMK A01 T02410186  RH  075%=      5-min Rain = 0
KSP1 251700Z 18010G15KT 24/19 A30 RMK A01 T02410187  RH  076%=      5-min Rain = 0
KSP1 251705Z 18011G17KT 24/19 A30 RMK A01 T02420189  RH  076%=      5-min Rain = 0
KSP1 251710Z 18011G16KT 24/19 A30 RMK A01 T02430189  RH  076%=      5-min Rain = 0
KSP1 251715Z 18012G17KT 25/19 A30 RMK A01 T02450189  RH  075%=      5-min Rain = 0
KSP1 251720Z 18013G20KT 25/19 A30 RMK A01 T02460189  RH  074%=      5-min Rain = 0
KSP1 251725Z 17012G17KT 25/19 A30 RMK A01 T02480190  RH  074%=      5-min Rain = 0
KSP1 251730Z 18011G18KT 25/19 A30 RMK A01 T02500190  RH  073%=      5-min Rain = 0
KSP1 251735Z 18012G17KT 25/19 A2999 RMK A01 T02520191  RH  073%=      5-min Rain = 0
KSP1 251740Z 18015G22KT 25/19 A2999 RMK A01 T02520189  RH  072%=      5-min Rain = 0
KSP1 251745Z 18014G20KT 25/19 A2999 RMK A01 T02510189  RH  072%=      5-min Rain = 0
KSP1 251750Z 17014G19KT 25/19 A2999 RMK A01 T02500188  RH  073%=      5-min Rain = 0
KSP1 251755Z 17013G20KT 25/19 A2999 RMK A01 T02480189  RH  074%=      5-min Rain = 0
KSP1 251800Z 18014KT 25/19 A2998 RMK A01 T02470189  RH  074%=      5-min Rain = 0
KSP1 251805Z 19013G18KT 25/19 A2998 RMK A01 T02460190  RH  075%=      5-min Rain = 0
KSP1 251810Z 18011G18KT 25/19 A2998 RMK A01 T02470189  RH  074%=      5-min Rain = 0
KSP1 251815Z 18012G17KT 25/19 A2998 RMK A01 T02470189  RH  074%=      5-min Rain = 0
KSP1 251820Z 18010G16KT 25/19 A2998 RMK A01 T02460189  RH  074%=      5-min Rain = 0
KSP1 251825Z 18009KT 25/19 A2998 RMK A01 T02480191  RH  075%=      5-min Rain = 0
KSP1 251830Z 18011G17KT 25/19 A2998 RMK A01 T02460190  RH  075%=      5-min Rain = 0
KSP1 251835Z 17010KT 24/19 A2998 RMK A01 T02440191  RH  076%=      5-min Rain = 0
KSP1 251840Z 17011KT 24/19 A2998 RMK A01 T02440192  RH  077%=      5-min Rain = 0
KSP1 251845Z 17009G14KT 24/19 A2998 RMK A01 T02430194  RH  078%=      5-min Rain = 0
KSP1 251850Z 17009KT 24/19 A2998 RMK A01 T02430194  RH  078%=      5-min Rain = 0
KSP1 251855Z 17011KT 24/19 A2997 RMK A01 T02440194  RH  078%=      5-min Rain = 0
KSP1 251900Z 16009KT 24/20 A2997 RMK A01 T02440195  RH  078%=      5-min Rain = 0
KSP1 251905Z 17012G18KT 25/19 A2997 RMK A01 T02450192  RH  076%=      5-min Rain = 0
KSP1 251910Z 17012G19KT 25/19 A2997 RMK A01 T02480192  RH  075%=      5-min Rain = 0
KSP1 251915Z 17012G18KT 25/19 A2997 RMK A01 T02500192  RH  074%=      5-min Rain = 0
KSP1 251920Z 17012G17KT 25/19 A2997 RMK A01 T02500192  RH  074%=      5-min Rain = 0
KSP1 251925Z 17014KT 25/19 A2996 RMK A01 T02500192  RH  074%=      5-min Rain = 0
KSP1 251930Z 17013G18KT 25/19 A2996 RMK A01 T02520192  RH  074%=      5-min Rain = 0
KSP1 251935Z 17013G18KT 26/19 A2995 RMK A01 T02550194  RH  073%=      5-min Rain = 0
KSP1 251940Z 16012G20KT 26/20 A2995 RMK A01 T02580195  RH  072%=      5-min Rain = 0
KSP1 251945Z 16015G21KT 26/19 A2994 RMK A01 T02600194  RH  071%=      5-min Rain = 0
KSP1 251950Z 17013G20KT 26/19 A2994 RMK A01 T02610194  RH  071%=      5-min Rain = 0
KSP1 251955Z 17013G21KT 26/20 A2994 RMK A01 T02620196  RH  071%=      5-min Rain = 0
KSP1 252000Z 16013G21KT 26/20 A2993 RMK A01 T02630195  RH  070%=      5-min Rain = 0
KSP1 252005Z 17012G18KT 26/19 A2993 RMK A01 T02610194  RH  070%=      5-min Rain = 0
KSP1 252010Z 17012G20KT 26/19 A2993 RMK A01 T02620194  RH  070%=      5-min Rain = 0
KSP1 252015Z 16013G18KT 26/19 A2993 RMK A01 T02630194  RH  070%=      5-min Rain = 0
KSP1 252020Z 16013G18KT 26/19 A2993 RMK A01 T02630194  RH  070%=      5-min Rain = 0
KSP1 252025Z 16011G17KT 26/20 A2993 RMK A01 T02630195  RH  070%=      5-min Rain = 0
KSP1 252030Z 15012G19KT 27/20 A2993 RMK A01 T02660196  RH  069%=      5-min Rain = 0
KSP1 252035Z 16011G19KT 27/20 A2993 RMK A01 T02660197  RH  070%=      5-min Rain = 0
KSP1 252040Z 16011G16KT 27/20 A2993 RMK A01 T02650196  RH  070%=      5-min Rain = 0
KSP1 252045Z 17014G20KT 26/19 A2993 RMK A01 T02640194  RH  069%=      5-min Rain = 0
KSP1 252050Z 17013G18KT 26/19 A2993 RMK A01 T02640194  RH  069%=      5-min Rain = 0
KSP1 252055Z 16012G17KT 26/19 A2993 RMK A01 T02640194  RH  069%=      5-min Rain = 0
KSP1 252100Z 16012G17KT 26/19 A2993 RMK A01 T02640194  RH  069%=      5-min Rain = 0
KSP1 252105Z 16010G15KT 27/20 A2993 RMK A01 T02650196  RH  070%=      5-min Rain = 0
KSP1 252110Z 15011G16KT 27/20 A2993 RMK A01 T02660196  RH  069%=      5-min Rain = 0
KSP1 252115Z 16012G19KT 27/20 A2992 RMK A01 T02690197  RH  068%=      5-min Rain = 0
KSP1 252120Z 15011G17KT 27/20 A2992 RMK A01 T02710197  RH  068%=      5-min Rain = 0
KSP1 252125Z 16009G14KT 27/20 A2992 RMK A01 T02710198  RH  068%=      5-min Rain = 0
KSP1 252130Z 15011G16KT 27/20 A2992 RMK A01 T02700197  RH  068%=      5-min Rain = 0
KSP1 252135Z 15012G18KT 27/20 A2992 RMK A01 T02690195  RH  068%=      5-min Rain = 0
KSP1 252140Z 16011G17KT 27/19 A2992 RMK A01 T02670194  RH  068%=      5-min Rain = 0
KSP1 252145Z 16010G15KT 26/20 A2991 RMK A01 T02640196  RH  070%=      5-min Rain = 0
KSP1 252150Z 15012G18KT 26/20 A2991 RMK A01 T02640195  RH  070%=      5-min Rain = 0
KSP1 252155Z 16013G18KT 26/20 A2991 RMK A01 T02640195  RH  069%=      5-min Rain = 0
KSP1 252200Z 15014G19KT 26/20 A2991 RMK A01 T02640195  RH  069%=      5-min Rain = 0
KSP1 252205Z 15012G17KT 27/20 A299 RMK A01 T02660197  RH  070%=      5-min Rain = 0
KSP1 252210Z 15012G17KT 27/20 A299 RMK A01 T02680197  RH  069%=      5-min Rain = 0
KSP1 252215Z 15011G16KT 27/20 A299 RMK A01 T02660197  RH  070%=      5-min Rain = 0
KSP1 252220Z 15013KT 26/20 A2989 RMK A01 T02640195  RH  070%=      5-min Rain = 0
KSP1 252225Z 15014G21KT 26/20 A2988 RMK A01 T02620195  RH  070%=      5-min Rain = 0
KSP1 252230Z 15013KT 26/20 A2987 RMK A01 T02610195  RH  071%=      5-min Rain = 0
KSP1 252235Z 15012G18KT 26/19 A2988 RMK A01 T02610194  RH  071%=      5-min Rain = 0
KSP1 252240Z 15012G20KT 26/19 A2987 RMK A01 T02610194  RH  070%=      5-min Rain = 0
KSP1 252245Z 15009G15KT 26/19 A2987 RMK A01 T02600194  RH  071%=      5-min Rain = 0
KSP1 252250Z 15007KT 26/20 A2988 RMK A01 T02600195  RH  072%=      5-min Rain = 0
KSP1 252255Z 16007G12KT 26/19 A2989 RMK A01 T02600194  RH  071%=      5-min Rain = 0
KSP1 252300Z 16008KT 26/19 A2989 RMK A01 T02610194  RH  070%=      5-min Rain = 0
KSP1 252305Z 15009G15KT 26/19 A2988 RMK A01 T02620194  RH  070%=      5-min Rain = 0
KSP1 252310Z 15008G13KT 26/20 A2987 RMK A01 T02620195  RH  071%=      5-min Rain = 0
KSP1 252315Z 16010KT 26/20 A2987 RMK A01 T02630195  RH  070%=      5-min Rain = 0
KSP1 252320Z 16008G14KT 27/20 A2988 RMK A01 T02650195  RH  069%=      5-min Rain = 0
KSP1 252325Z 16009KT 27/19 A2988 RMK A01 T02660194  RH  068%=      5-min Rain = 0
KSP1 252330Z 16007KT 27/19 A2989 RMK A01 T02670194  RH  068%=      5-min Rain = 0
KSP1 252335Z 15005KT 27/20 A2989 RMK A01 T02680195  RH  068%=      5-min Rain = 0
KSP1 252340Z 15005G10KT 27/20 A2989 RMK A01 T02690196  RH  068%=      5-min Rain = 0
KSP1 252345Z 17007KT 27/19 A2989 RMK A01 T02700193  RH  066%=      5-min Rain = 0
KSP1 252350Z 17006KT 27/19 A2989 RMK A01 T02710194  RH  066%=      5-min Rain = 0
KSP1 252355Z 17006KT 27/19 A299 RMK A01 T02710194  RH  067%=      5-min Rain = 0
KSP1 260000Z 17008KT 27/19 A299 RMK A01 T02710193  RH  066%=      5-min Rain = 0
KSP1 260005Z 17007KT 27/19 A299 RMK A01 T02700193  RH  066%=      5-min Rain = 0
KSP1 260010Z 17007KT 27/19 A299 RMK A01 T02690194  RH  067%=      5-min Rain = 0
KSP1 260015Z 18007KT 27/19 A299 RMK A01 T02690194  RH  067%=      5-min Rain = 0
KSP1 260020Z 18010KT 27/19 A299 RMK A01 T02720188  RH  064%=      5-min Rain = 0
KSP1 260025Z 18008KT 27/18 A299 RMK A01 T02740184  RH  061%=      5-min Rain = 0
KSP1 260030Z 19008G13KT 27/18 A299 RMK A01 T02720181  RH  060%=      5-min Rain = 0
KSP1 260035Z 19008KT 27/18 A299 RMK A01 T02730180  RH  060%=      5-min Rain = 0
KSP1 260040Z 19008KT 27/18 A299 RMK A01 T02740181  RH  060%=      5-min Rain = 0
KSP1 260045Z 19009KT 27/18 A299 RMK A01 T02740180  RH  060%=      5-min Rain = 0
KSP1 260050Z 18007KT 27/18 A299 RMK A01 T02720181  RH  061%=      5-min Rain = 0
KSP1 260055Z 18009KT 27/18 A299 RMK A01 T02710178  RH  060%=      5-min Rain = 0
KSP1 260100Z 18009KT 27/18 A299 RMK A01 T02700177  RH  060%=      5-min Rain = 0
KSP1 260105Z 18007KT 27/18 A2991 RMK A01 T02680177  RH  060%=      5-min Rain = 0
KSP1 260110Z 18007G12KT 27/18 A2991 RMK A01 T02670177  RH  061%=      5-min Rain = 0
KSP1 260115Z 19007KT 27/18 A2991 RMK A01 T02650177  RH  061%=      5-min Rain = 0
KSP1 260120Z 18005KT 26/18 A2991 RMK A01 T02630177  RH  063%=      5-min Rain = 0
KSP1 260125Z 19005KT 26/18 A2992 RMK A01 T02610178  RH  064%=      5-min Rain = 0
KSP1 260130Z 19006KT 26/18 A2992 RMK A01 T02580179  RH  065%=      5-min Rain = 0
KSP1 260135Z 18005KT 26/18 A2992 RMK A01 T02570179  RH  065%=      5-min Rain = 0
KSP1 260140Z 19005KT 26/18 A2992 RMK A01 T02560178  RH  065%=      5-min Rain = 0
KSP1 260145Z 18005KT 26/18 A2992 RMK A01 T02550179  RH  066%=      5-min Rain = 0
KSP1 260150Z 18004KT 25/18 A2992 RMK A01 T02530179  RH  067%=      5-min Rain = 0
KSP1 260155Z 17003KT 25/18 A2992 RMK A01 T02510178  RH  067%=      5-min Rain = 0
KSP1 260200Z 17004KT 25/18 A2992 RMK A01 T02490178  RH  068%=      5-min Rain = 0
KSP1 260205Z 17004KT 25/18 A2992 RMK A01 T02470178  RH  069%=      5-min Rain = 0
KSP1 260210Z 17004KT 25/18 A2992 RMK A01 T02450178  RH  070%=      5-min Rain = 0
KSP1 260215Z 17005KT 24/18 A2992 RMK A01 T02430178  RH  071%=      5-min Rain = 0
KSP1 260220Z 18005KT 24/18 A2992 RMK A01 T02410178  RH  072%=      5-min Rain = 0
KSP1 260225Z 18005KT 24/18 A2993 RMK A01 T02390179  RH  073%=      5-min Rain = 0
KSP1 260230Z 18005KT 24/18 A2993 RMK A01 T02400179  RH  073%=      5-min Rain = 0
KSP1 260235Z 18005KT 24/18 A2993 RMK A01 T02410179  RH  072%=      5-min Rain = 0
KSP1 260240Z 17004KT 24/18 A2993 RMK A01 T02400179  RH  073%=      5-min Rain = 0
KSP1 260245Z 17005KT 24/18 A2992 RMK A01 T02370179  RH  074%=      5-min Rain = 0
KSP1 260250Z 17006G11KT 24/18 A2992 RMK A01 T02370179  RH  074%=      5-min Rain = 0
KSP1 260255Z 17005KT 24/18 A2992 RMK A01 T02360179  RH  074%=      5-min Rain = 0
KSP1 260300Z 17005KT 23/18 A2992 RMK A01 T02320180  RH  076%=      5-min Rain = 0
KSP1 260305Z 17005KT 23/18 A2992 RMK A01 T02300180  RH  077%=      5-min Rain = 0
KSP1 260310Z 16005KT 23/18 A2991 RMK A01 T02310179  RH  077%=      5-min Rain = 0
KSP1 260315Z 16005KT 23/18 A2991 RMK A01 T02310179  RH  077%=      5-min Rain = 0
KSP1 260320Z 16005KT 23/18 A2991 RMK A01 T02340179  RH  075%=      5-min Rain = 0
KSP1 260325Z 15004KT 23/18 A2991 RMK A01 T02340179  RH  075%=      5-min Rain = 0
KSP1 260330Z 13003KT 23/18 A2991 RMK A01 T02330178  RH  075%=      5-min Rain = 0
KSP1 260335Z 12003KT 23/18 A2991 RMK A01 T02330178  RH  075%=      5-min Rain = 0
KSP1 260340Z 12003KT 23/18 A2991 RMK A01 T02320179  RH  076%=      5-min Rain = 0
KSP1 260345Z 11002KT 23/18 A2991 RMK A01 T02310179  RH  076%=      5-min Rain = 0
KSP1 260350Z 08002KT 23/18 A2991 RMK A01 T02300179  RH  077%=      5-min Rain = 0
KSP1 260355Z 07002KT 23/18 A2991 RMK A01 T02270178  RH  078%=      5-min Rain = 0
KSP1 260400Z 07003KT 22/18 A2991 RMK A01 T02230178  RH  080%=      5-min Rain = 0
KSP1 260405Z 08003KT 22/18 A2992 RMK A01 T02210180  RH  081%=      5-min Rain = 0
KSP1 260410Z 10002KT 22/18 A2992 RMK A01 T02220181  RH  081%=      5-min Rain = 0
KSP1 260415Z 15002KT 22/18 A2993 RMK A01 T02210179  RH  081%=      5-min Rain = 0
KSP1 260420Z 14002KT 22/18 A2993 RMK A01 T02160176  RH  082%=      5-min Rain = 0
KSP1 260425Z 13003KT 21/18 A2994 RMK A01 T02140178  RH  084%=      5-min Rain = 0
KSP1 260430Z 13003KT 21/18 A2994 RMK A01 T02140179  RH  085%=      5-min Rain = 0
KSP1 260435Z 13003KT 21/18 A2993 RMK A01 T02130179  RH  085%=      5-min Rain = 0
KSP1 260440Z 12003KT 21/18 A2993 RMK A01 T02120179  RH  086%=      5-min Rain = 0
KSP1 260445Z 12003KT 21/18 A2993 RMK A01 T02120181  RH  087%=      5-min Rain = 0
KSP1 260450Z 11003KT 21/18 A2993 RMK A01 T02130182  RH  087%=      5-min Rain = 0
KSP1 260455Z 10003KT 21/18 A2993 RMK A01 T02140183  RH  087%=      5-min Rain = 0

Page generated in 0.0092 seconds.